Time;durP1;ratioP1;P1;durP2;ratioP2;P2;SDS_P1;SDS_P2;PMS_P1;PMS_P2;Temp;Humidity;BMP_temperature;BMP_pressure;BME280_temperature;BME280_humidity;BME280_pressure;Samples;Min_cycle;Max_cycle;Signal;HPM_P1;HPM_P2
2022/03/09 00:01:55;;;;;;;47.25;25.48;;;;;;;-144.47;100.00;61586.06;5018609;28;20095;-75
2022/03/09 00:04:21;;;;;;;44.20;26.52;;;;;;;-144.47;100.00;61586.06;5020485;28;20061;-75
2022/03/09 00:06:46;;;;;;;42.15;24.35;;;;;;;-144.47;100.00;61586.06;5021043;28;20041;-76
2022/03/09 00:09:13;;;;;;;53.75;26.75;;;;;;;-144.47;100.00;61586.06;5017891;28;20474;-74
2022/03/09 00:11:39;;;;;;;44.90;25.73;;;;;;;-144.47;100.00;61586.06;5020668;28;20482;-74
2022/03/09 00:14:04;;;;;;;46.80;26.65;;;;;;;-144.47;100.00;61586.06;5021237;28;20049;-74
2022/03/09 00:16:30;;;;;;;44.25;27.17;;;;;;;-144.47;100.00;61586.06;5019108;28;20033;-73
2022/03/09 00:18:55;;;;;;;48.22;26.92;;;;;;;-144.47;100.00;61586.06;5017977;28;20030;-75
2022/03/09 00:21:21;;;;;;;48.45;26.70;;;;;;;-144.47;100.00;61586.06;5018822;28;20432;-74
2022/03/09 00:23:47;;;;;;;51.40;26.95;;;;;;;-144.47;100.00;61586.06;5012798;28;20443;-75
2022/03/09 00:26:14;;;;;;;48.13;27.10;;;;;;;-144.47;100.00;61586.06;5020307;28;20026;-74
2022/03/09 00:28:39;;;;;;;49.30;26.42;;;;;;;-144.47;100.00;61586.06;5016703;28;20075;-74
2022/03/09 00:31:06;;;;;;;53.88;28.05;;;;;;;-144.47;100.00;61586.06;5017938;28;20389;-74
2022/03/09 00:33:32;;;;;;;47.00;26.20;;;;;;;-144.47;100.00;61586.06;5019294;28;20034;-74
2022/03/09 00:35:58;;;;;;;45.90;26.13;;;;;;;-144.47;100.00;61586.06;5021237;28;20493;-74
2022/03/09 00:38:23;;;;;;;43.75;26.05;;;;;;;-144.47;100.00;61586.06;5021059;28;20117;-74
2022/03/09 00:40:50;;;;;;;45.75;26.50;;;;;;;-144.47;100.00;61586.06;5022840;28;20405;-75
2022/03/09 00:43:16;;;;;;;48.10;26.98;;;;;;;-144.47;100.00;61586.06;5020215;28;20500;-74
2022/03/09 00:45:43;;;;;;;50.05;27.73;;;;;;;-144.47;100.00;61586.06;5020974;28;20025;-75
2022/03/09 00:48:08;;;;;;;51.70;27.08;;;;;;;-144.47;100.00;61586.06;5019681;28;20081;-74
2022/03/09 00:50:34;;;;;;;45.75;27.33;;;;;;;-144.47;100.00;61586.06;5020042;28;20418;-74
2022/03/09 00:52:59;;;;;;;45.58;26.52;;;;;;;-144.47;100.00;61586.06;5021217;28;20038;-75
2022/03/09 00:55:25;;;;;;;47.70;27.05;;;;;;;-144.47;100.00;61586.06;5021181;28;20026;-74
2022/03/09 00:57:50;;;;;;;47.75;26.83;;;;;;;-144.47;100.00;61586.06;5023853;28;20048;-75
2022/03/09 01:00:16;;;;;;;46.88;28.60;;;;;;;-144.47;100.00;61586.06;5020395;28;20079;-74
2022/03/09 01:02:43;;;;;;;44.92;26.02;;;;;;;-144.47;100.00;61586.06;5023564;28;20092;-74
2022/03/09 01:05:10;;;;;;;48.60;26.60;;;;;;;-144.47;100.00;61586.06;5020886;28;20038;-74
2022/03/09 01:07:35;;;;;;;46.40;27.60;;;;;;;-144.47;100.00;61586.06;5022552;28;20506;-74
2022/03/09 01:10:01;;;;;;;51.45;27.83;;;;;;;-144.47;100.00;61586.06;5022082;28;20041;-75
2022/03/09 01:12:26;;;;;;;51.63;27.75;;;;;;;-144.47;100.00;61586.06;5019753;28;20104;-74
2022/03/09 01:14:52;;;;;;;47.50;27.38;;;;;;;-144.47;100.00;61586.06;5021075;28;20534;-75
2022/03/09 01:17:17;;;;;;;49.28;27.60;;;;;;;-144.47;100.00;61586.06;5023286;28;20104;-75
2022/03/09 01:19:43;;;;;;;52.35;27.90;;;;;;;-144.47;100.00;61586.06;5020043;28;20030;-76
2022/03/09 01:22:08;;;;;;;48.08;26.88;;;;;;;-144.47;100.00;61586.06;5022446;28;20042;-75
2022/03/09 01:24:34;;;;;;;53.05;27.83;;;;;;;-144.47;100.00;61586.06;5021287;28;20021;-74
2022/03/09 01:26:59;;;;;;;44.70;26.13;;;;;;;-144.47;100.00;61586.06;5020686;28;20121;-75
2022/03/09 01:29:24;;;;;;;45.25;25.63;;;;;;;-144.47;100.00;61586.06;5022465;28;20041;-74
2022/03/09 01:31:50;;;;;;;47.78;27.20;;;;;;;-144.47;100.00;61586.06;5020269;28;20057;-75
2022/03/09 01:34:16;;;;;;;43.95;26.17;;;;;;;-144.47;100.00;61586.06;5019843;28;20049;-73
2022/03/09 01:36:41;;;;;;;46.85;27.10;;;;;;;-144.47;100.00;61586.06;5023556;28;20025;-75
2022/03/09 01:39:06;;;;;;;47.17;27.08;;;;;;;-144.47;100.00;61586.06;5021484;28;20167;-75
2022/03/09 01:41:32;;;;;;;50.13;26.10;;;;;;;-144.47;100.00;61586.06;5027537;28;20041;-75
2022/03/09 01:44:16;;;;;;;51.15;27.65;;;;;;;-144.47;100.00;61586.06;5021536;28;20034;-75
2022/03/09 01:46:42;;;;;;;45.30;26.75;;;;;;;-144.47;100.00;61586.06;5019950;28;20034;-75
2022/03/09 01:49:09;;;;;;;49.03;26.92;;;;;;;-144.47;100.00;61586.06;5021788;28;20030;-75
2022/03/09 01:51:39;;;;;;;48.17;26.58;;;;;;;-144.47;100.00;61586.06;5020675;28;20033;-74
2022/03/09 01:54:05;;;;;;;50.35;25.95;;;;;;;-144.47;100.00;61586.06;5022156;28;20659;-74
2022/03/09 01:56:31;;;;;;;49.95;26.92;;;;;;;-144.47;100.00;61586.06;5021313;28;20117;-74
2022/03/09 01:58:56;;;;;;;47.05;27.73;;;;;;;-144.47;100.00;61586.06;5016200;28;20065;-73
2022/03/09 02:01:22;;;;;;;45.97;26.70;;;;;;;-144.47;100.00;61586.06;5018579;28;20401;-75
2022/03/09 02:03:48;;;;;;;50.13;27.60;;;;;;;-144.47;100.00;61586.06;5017403;28;20452;-75
2022/03/09 02:06:14;;;;;;;47.20;27.10;;;;;;;-144.47;100.00;61586.06;5019020;28;20057;-75
2022/03/09 02:11:25;;;;;;;55.42;27.55;;;;;;;-144.47;100.00;61586.06;5017517;28;20046;-74
2022/03/09 02:13:51;;;;;;;49.80;26.88;;;;;;;-144.47;100.00;61586.06;5022688;28;20457;-74
2022/03/09 02:16:16;;;;;;;52.50;27.65;;;;;;;-144.47;100.00;61586.06;5023884;28;20108;-75
2022/03/09 02:18:42;;;;;;;49.47;27.55;;;;;;;-144.47;100.00;61586.06;5020763;28;20030;-75
2022/03/09 02:21:10;;;;;;;46.60;27.65;;;;;;;-144.47;100.00;61586.06;5023432;28;20173;-75
2022/03/09 02:23:36;;;;;;;49.47;27.67;;;;;;;-144.47;100.00;61586.06;5022348;28;20129;-74
2022/03/09 02:26:02;;;;;;;53.80;27.67;;;;;;;-144.47;100.00;61586.06;5021964;28;20071;-75
2022/03/09 02:28:27;;;;;;;43.90;26.75;;;;;;;-144.47;100.00;61586.06;5020675;28;20162;-75
2022/03/09 02:30:57;;;;;;;46.88;26.15;;;;;;;-144.47;100.00;61586.06;5033784;28;20029;-75
2022/03/09 02:33:22;;;;;;;46.10;26.80;;;;;;;-144.47;100.00;61586.06;5040377;28;20056;-74
2022/03/09 02:35:48;;;;;;;49.38;27.15;;;;;;;-144.47;100.00;61586.06;5034489;28;20417;-75
2022/03/09 02:38:13;;;;;;;46.85;26.42;;;;;;;-144.47;100.00;61586.06;5021798;28;20025;-76
2022/03/09 02:40:39;;;;;;;48.97;28.92;;;;;;;-144.47;100.00;61586.06;5016032;28;20033;-75
2022/03/09 02:43:04;;;;;;;50.00;27.67;;;;;;;-144.47;100.00;61586.06;5022363;28;20508;-76
2022/03/09 02:45:30;;;;;;;58.30;30.35;;;;;;;-144.47;100.00;61586.06;5022773;28;20048;-75
2022/03/09 02:47:56;;;;;;;57.10;29.83;;;;;;;-144.47;100.00;61586.06;5023556;28;20474;-74
2022/03/09 02:50:22;;;;;;;55.03;31.20;;;;;;;-144.47;100.00;61586.06;5020354;28;20037;-75
2022/03/09 02:52:47;;;;;;;57.50;30.83;;;;;;;-144.47;100.00;61586.06;5024229;28;20033;-75
2022/03/09 02:55:13;;;;;;;53.90;30.42;;;;;;;-144.47;100.00;61586.06;5023225;28;20108;-74
2022/03/09 02:57:39;;;;;;;49.55;28.80;;;;;;;-144.47;100.00;61586.06;5032375;28;20064;-75
2022/03/09 03:00:07;;;;;;;54.45;28.10;;;;;;;-144.47;100.00;61586.06;5027355;28;20045;-74
2022/03/09 03:02:34;;;;;;;53.72;29.52;;;;;;;-144.47;100.00;61586.06;5024493;28;20494;-74
2022/03/09 03:05:01;;;;;;;50.28;28.48;;;;;;;-144.47;100.00;61586.06;5024264;28;20040;-75
2022/03/09 03:07:26;;;;;;;50.78;28.75;;;;;;;-144.47;100.00;61586.06;5022163;28;20033;-75
2022/03/09 03:09:52;;;;;;;46.72;27.25;;;;;;;-144.47;100.00;61586.06;5002698;28;20049;-75
2022/03/09 03:12:17;;;;;;;45.90;28.20;;;;;;;-144.47;100.00;61586.06;5020924;28;20367;-74
2022/03/09 03:14:43;;;;;;;53.53;29.30;;;;;;;-144.47;100.00;61586.06;5020311;28;20034;-74
2022/03/09 03:17:08;;;;;;;57.50;31.05;;;;;;;-144.47;100.00;61586.06;5002306;28;20038;-74
2022/03/09 03:19:34;;;;;;;51.05;28.02;;;;;;;-144.47;100.00;61586.06;5021636;28;20471;-76
2022/03/09 03:22:01;;;;;;;55.47;27.73;;;;;;;-144.47;100.00;61586.06;5020999;28;20227;-75
2022/03/09 03:24:28;;;;;;;52.50;28.15;;;;;;;-144.47;100.00;61586.06;5018869;28;20177;-74
2022/03/09 03:26:54;;;;;;;52.50;27.13;;;;;;;-144.47;100.00;61586.06;5020171;28;20063;-75
2022/03/09 03:29:19;;;;;;;51.92;27.40;;;;;;;-144.47;100.00;61586.06;5017930;28;20029;-75
2022/03/09 03:31:44;;;;;;;53.25;27.55;;;;;;;-144.47;100.00;61586.06;5019615;28;20038;-73
2022/03/09 03:34:10;;;;;;;47.33;26.98;;;;;;;-144.47;100.00;61586.06;5021986;28;20420;-76
2022/03/09 03:36:35;;;;;;;53.17;28.52;;;;;;;-144.47;100.00;61586.06;5020570;28;20423;-74
2022/03/09 03:39:01;;;;;;;55.97;28.58;;;;;;;-144.47;100.00;61586.06;5019975;28;20040;-74
2022/03/09 03:41:26;;;;;;;50.78;28.63;;;;;;;-144.47;100.00;61586.06;5022445;28;20036;-75
2022/03/09 03:43:52;;;;;;;48.45;27.42;;;;;;;-144.47;100.00;61586.06;5020754;28;20439;-74
2022/03/09 03:46:17;;;;;;;46.78;28.13;;;;;;;-144.47;100.00;61586.06;5018608;28;20029;-74
2022/03/09 03:48:43;;;;;;;50.50;28.10;;;;;;;-144.47;100.00;61586.06;5021948;28;20054;-74
2022/03/09 03:51:08;;;;;;;46.20;27.40;;;;;;;-144.47;100.00;61586.06;5019587;28;20056;-74
2022/03/09 03:53:34;;;;;;;49.13;28.00;;;;;;;-144.47;100.00;61586.06;5020664;28;20188;-73
2022/03/09 03:55:59;;;;;;;46.65;27.00;;;;;;;-144.47;100.00;61586.06;5021987;28;20041;-74
2022/03/09 03:58:25;;;;;;;52.63;27.77;;;;;;;-144.47;100.00;61586.06;5014059;28;20816;-73
2022/03/09 04:00:51;;;;;;;48.28;28.73;;;;;;;-144.47;100.00;61586.06;5028269;28;20046;-73
2022/03/09 04:03:16;;;;;;;49.95;27.33;;;;;;;-144.47;100.00;61586.06;5021359;28;20088;-74
2022/03/09 04:05:43;;;;;;;54.28;28.70;;;;;;;-144.47;100.00;61586.06;5020889;28;20437;-76
2022/03/09 04:08:08;;;;;;;50.42;28.17;;;;;;;-144.47;100.00;61586.06;5018082;28;20125;-75
2022/03/09 04:10:34;;;;;;;55.38;28.63;;;;;;;-144.47;100.00;61586.06;5021558;28;20176;-74
2022/03/09 04:13:03;;;;;;;53.60;27.98;;;;;;;-144.47;100.00;61586.06;5023781;28;20038;-75
2022/03/09 04:15:31;;;;;;;51.55;29.30;;;;;;;-144.47;100.00;61586.06;5022804;28;20494;-74
2022/03/09 04:17:56;;;;;;;47.80;27.40;;;;;;;-144.47;100.00;61586.06;5023675;28;20034;-74
2022/03/09 04:20:22;;;;;;;54.13;29.77;;;;;;;-144.47;100.00;61586.06;5021334;28;20037;-74
2022/03/09 04:22:47;;;;;;;53.45;28.98;;;;;;;-144.47;100.00;61586.06;5024764;28;20470;-75
2022/03/09 04:25:13;;;;;;;56.80;29.23;;;;;;;-144.47;100.00;61586.06;5021113;28;20394;-73
2022/03/09 04:27:38;;;;;;;59.17;29.30;;;;;;;-144.47;100.00;61586.06;5023854;28;20096;-74
2022/03/09 04:30:05;;;;;;;53.63;29.25;;;;;;;-144.47;100.00;61586.06;5022595;28;20102;-75
2022/03/09 04:32:32;;;;;;;56.58;28.75;;;;;;;-144.47;100.00;61586.06;5021067;28;20033;-73
2022/03/09 04:34:58;;;;;;;58.28;30.52;;;;;;;-144.47;100.00;61586.06;5024539;28;20034;-75
2022/03/09 04:37:23;;;;;;;56.15;27.60;;;;;;;-144.47;100.00;61586.06;5023283;28;20079;-75
2022/03/09 04:39:49;;;;;;;58.90;30.15;;;;;;;-144.47;100.00;61586.06;5016564;28;20066;-75
2022/03/09 04:42:15;;;;;;;55.45;29.33;;;;;;;-144.47;100.00;61586.06;5032978;28;20406;-75
2022/03/09 04:44:40;;;;;;;56.25;29.92;;;;;;;-144.47;100.00;61586.06;5022305;28;20110;-75
2022/03/09 04:47:06;;;;;;;55.17;29.33;;;;;;;-144.47;100.00;61586.06;5024903;28;20037;-75
2022/03/09 04:49:32;;;;;;;56.45;29.13;;;;;;;-144.47;100.00;61586.06;5024591;28;20109;-75
2022/03/09 04:51:57;;;;;;;59.40;28.92;;;;;;;-144.47;100.00;61586.06;5023159;28;20064;-76
2022/03/09 04:54:23;;;;;;;52.83;27.98;;;;;;;-144.47;100.00;61586.06;5025318;28;20029;-76
2022/03/09 04:56:49;;;;;;;56.17;28.63;;;;;;;-144.47;100.00;61586.06;5027137;28;20117;-76
2022/03/09 04:59:16;;;;;;;51.00;27.92;;;;;;;-144.47;100.00;61586.06;5022689;28;20036;-75
2022/03/09 05:01:42;;;;;;;53.30;28.02;;;;;;;-144.47;100.00;61586.06;5032565;22;20123;-72
2022/03/09 05:04:07;;;;;;;54.05;28.98;;;;;;;-144.47;100.00;61586.06;5010958;28;20034;-72
2022/03/09 05:06:33;;;;;;;52.25;28.45;;;;;;;-144.47;100.00;61586.06;5011291;28;20386;-72
2022/03/09 05:08:58;;;;;;;56.65;29.83;;;;;;;-144.47;100.00;61586.06;5011257;28;20459;-72
2022/03/09 05:11:24;;;;;;;51.15;29.30;;;;;;;-144.47;100.00;61586.06;5010833;28;20030;-73
2022/03/09 05:13:49;;;;;;;51.97;26.27;;;;;;;-144.47;100.00;61586.06;5009398;28;20037;-71
2022/03/09 05:16:15;;;;;;;56.13;29.40;;;;;;;-144.47;100.00;61586.06;5010566;28;20026;-73
2022/03/09 05:18:41;;;;;;;55.83;28.08;;;;;;;-144.47;100.00;61586.06;5011141;28;20041;-73
2022/03/09 05:21:09;;;;;;;51.25;28.17;;;;;;;-144.47;100.00;61586.06;4976776;28;20560;-73
2022/03/09 05:23:35;;;;;;;50.08;27.63;;;;;;;-144.47;100.00;61586.06;5010805;28;20030;-74
2022/03/09 05:26:00;;;;;;;50.72;26.85;;;;;;;-144.47;100.00;61586.06;5011355;28;20401;-71
2022/03/09 05:28:26;;;;;;;51.20;28.23;;;;;;;-144.47;100.00;61586.06;5010277;28;20042;-73
2022/03/09 05:30:51;;;;;;;47.50;26.60;;;;;;;-144.47;100.00;61586.06;5011885;28;20049;-72
2022/03/09 05:33:17;;;;;;;51.47;28.63;;;;;;;-144.47;100.00;61586.06;5010062;28;20113;-71
2022/03/09 05:35:43;;;;;;;49.90;27.73;;;;;;;-144.47;100.00;61586.06;5010683;28;20344;-72
2022/03/09 05:38:09;;;;;;;52.03;27.58;;;;;;;-144.47;100.00;61586.06;5010306;28;20105;-71
2022/03/09 05:40:34;;;;;;;49.83;27.63;;;;;;;-144.47;100.00;61586.06;5009955;28;20034;-72
2022/03/09 05:43:00;;;;;;;50.20;27.42;;;;;;;-144.47;100.00;61586.06;5009790;28;20038;-72
2022/03/09 05:45:25;;;;;;;50.50;27.75;;;;;;;-144.47;100.00;61586.06;5009102;28;20070;-72
2022/03/09 05:47:51;;;;;;;50.42;27.52;;;;;;;-144.47;100.00;61586.06;5009506;28;20034;-71
2022/03/09 05:50:18;;;;;;;53.92;28.60;;;;;;;-144.47;100.00;61586.06;5009663;28;20427;-72
2022/03/09 05:52:44;;;;;;;48.17;28.15;;;;;;;-144.47;100.00;61586.06;5010072;28;20042;-72
2022/03/09 05:55:09;;;;;;;50.40;27.55;;;;;;;-144.47;100.00;61586.06;5009644;28;20088;-71
2022/03/09 05:57:35;;;;;;;53.05;27.25;;;;;;;-144.47;100.00;61586.06;5010248;28;20080;-72
2022/03/09 06:00:02;;;;;;;51.13;26.40;;;;;;;-144.47;100.00;61586.06;4991997;28;20057;-72
2022/03/09 06:02:37;;;;;;;56.72;29.00;;;;;;;-144.47;100.00;61586.06;5008514;28;20069;-73
2022/03/09 06:05:02;;;;;;;53.00;27.00;;;;;;;-144.47;100.00;61586.06;5009839;28;20430;-72
2022/03/09 06:07:31;;;;;;;59.80;27.55;;;;;;;-144.47;100.00;61586.06;5009538;28;20038;-72
2022/03/09 06:09:57;;;;;;;56.13;29.08;;;;;;;-144.47;100.00;61586.06;5011126;28;20049;-73
2022/03/09 06:12:22;;;;;;;58.33;30.30;;;;;;;-144.47;100.00;61586.06;5010322;28;20553;-74
2022/03/09 06:14:48;;;;;;;54.13;29.55;;;;;;;-144.47;100.00;61586.06;5009692;28;20044;-71
2022/03/09 06:17:13;;;;;;;65.45;29.92;;;;;;;-144.47;100.00;61586.06;5008536;28;20381;-73
2022/03/09 06:19:39;;;;;;;54.92;29.80;;;;;;;-144.47;100.00;61586.06;5009284;28;20042;-72
2022/03/09 06:22:05;;;;;;;58.63;30.77;;;;;;;-144.47;100.00;61586.06;5009085;28;20069;-75
2022/03/09 06:24:31;;;;;;;59.55;30.50;;;;;;;-144.47;100.00;61586.06;4991052;28;20034;-73
2022/03/09 06:26:56;;;;;;;64.97;29.77;;;;;;;-144.47;100.00;61586.06;5009077;28;20442;-73
2022/03/09 06:29:22;;;;;;;58.25;29.65;;;;;;;-144.47;100.00;61586.06;5009107;28;20386;-74
2022/03/09 06:31:47;;;;;;;62.45;31.50;;;;;;;-144.47;100.00;61586.06;5006922;28;20052;-74
2022/03/09 06:34:13;;;;;;;63.28;31.15;;;;;;;-144.47;100.00;61586.06;5008828;28;20208;-74
2022/03/09 06:36:43;;;;;;;55.38;28.98;;;;;;;-144.47;100.00;61586.06;5008960;28;20053;-73
2022/03/09 06:39:09;;;;;;;52.13;29.17;;;;;;;-144.47;100.00;61586.06;5008933;28;20164;-73
2022/03/09 06:41:35;;;;;;;51.53;27.77;;;;;;;-144.47;100.00;61586.06;4316655;28;10022405;-75
2022/03/09 06:44:00;;;;;;;56.17;28.88;;;;;;;-144.47;100.00;61586.06;5005345;28;20069;-74
2022/03/09 06:46:26;;;;;;;58.15;29.33;;;;;;;-144.47;100.00;61586.06;5006160;28;20089;-74
2022/03/09 06:48:52;;;;;;;53.53;29.83;;;;;;;-144.47;100.00;61586.06;5006665;28;20038;-75
2022/03/09 06:51:17;;;;;;;55.22;28.90;;;;;;;-144.47;100.00;61586.06;4988859;28;20026;-73
2022/03/09 06:53:44;;;;;;;55.35;28.00;;;;;;;-144.47;100.00;61586.06;5006265;28;20160;-73
2022/03/09 06:56:10;;;;;;;50.53;29.13;;;;;;;-144.47;100.00;61586.06;5006534;28;20152;-73
2022/03/09 06:58:35;;;;;;;55.65;28.92;;;;;;;-144.47;100.00;61586.06;5007437;28;20041;-74
2022/03/09 07:01:01;;;;;;;56.97;30.80;;;;;;;-144.47;100.00;61586.06;5008056;28;20138;-73
2022/03/09 07:03:28;;;;;;;57.15;30.42;;;;;;;-144.47;100.00;61586.06;5005249;28;20057;-74
2022/03/09 07:05:54;;;;;;;54.35;31.08;;;;;;;-144.47;100.00;61586.06;4639002;28;9999874;-72
2022/03/09 07:08:19;;;;;;;62.45;30.15;;;;;;;-144.47;100.00;61586.06;5005415;28;20359;-77
2022/03/09 07:10:46;;;;;;;55.05;30.65;;;;;;;-144.47;100.00;61586.06;5007160;28;20034;-73
2022/03/09 07:13:11;;;;;;;56.75;31.75;;;;;;;-144.47;100.00;61586.06;4989648;28;20037;-72
2022/03/09 07:15:37;;;;;;;64.22;31.45;;;;;;;-144.47;100.00;61586.06;5007321;28;20045;-73
2022/03/09 07:18:02;;;;;;;58.17;31.27;;;;;;;-144.47;100.00;61586.06;5007921;28;20087;-73
2022/03/09 07:20:28;;;;;;;57.33;30.90;;;;;;;-144.47;100.00;61586.06;5007598;28;20079;-75
2022/03/09 07:22:54;;;;;;;55.88;32.17;;;;;;;-144.47;100.00;61586.06;5007682;28;20071;-74
2022/03/09 07:25:19;;;;;;;58.97;32.83;;;;;;;-144.47;100.00;61586.06;5007033;28;20045;-71
2022/03/09 07:27:45;;;;;;;64.72;33.42;;;;;;;-144.47;100.00;61586.06;5006666;28;20034;-75
2022/03/09 07:30:11;;;;;;;59.67;33.85;;;;;;;-144.47;100.00;61586.06;5008265;28;20385;-74
2022/03/09 07:32:37;;;;;;;61.30;33.10;;;;;;;-144.47;100.00;61586.06;5009103;28;20091;-73
2022/03/09 07:35:03;;;;;;;63.10;32.67;;;;;;;-144.47;100.00;61586.06;5008379;28;20033;-74
2022/03/09 07:37:29;;;;;;;71.75;35.13;;;;;;;-144.47;100.00;61586.06;5008065;28;20037;-74
2022/03/09 07:39:54;;;;;;;58.13;31.13;;;;;;;-144.47;100.00;61586.06;5007475;28;20050;-73
2022/03/09 07:42:20;;;;;;;55.65;31.02;;;;;;;-144.47;100.00;61586.06;5007367;28;20346;-73
2022/03/09 07:44:45;;;;;;;57.78;31.58;;;;;;;-144.47;100.00;61586.06;5007586;28;20038;-74
2022/03/09 07:47:11;;;;;;;59.60;33.60;;;;;;;-144.47;100.00;61586.06;4989135;28;20038;-74
2022/03/09 07:49:37;;;;;;;65.97;35.17;;;;;;;-144.47;100.00;61586.06;5007336;28;20074;-73
2022/03/09 07:52:05;;;;;;;63.40;33.15;;;;;;;-144.47;100.00;61586.06;5007250;28;20532;-73
2022/03/09 07:54:30;;;;;;;61.80;34.90;;;;;;;-144.47;100.00;61586.06;5007038;28;20663;-74
2022/03/09 07:56:56;;;;;;;66.10;35.50;;;;;;;-144.47;100.00;61586.06;5007160;28;20446;-74
2022/03/09 07:59:23;;;;;;;65.05;34.50;;;;;;;-144.47;100.00;61586.06;5007317;28;20096;-73
2022/03/09 08:01:52;;;;;;;67.80;34.28;;;;;;;-144.47;100.00;61586.06;5003729;28;20061;-72
2022/03/09 08:04:22;;;;;;;64.45;35.15;;;;;;;-144.47;100.00;61586.06;5002736;28;20053;-74
2022/03/09 08:06:48;;;;;;;66.00;35.07;;;;;;;-144.47;100.00;61586.06;5007939;28;20061;-72
2022/03/09 08:09:14;;;;;;;61.10;34.22;;;;;;;-144.47;100.00;61586.06;5006381;28;20033;-72
2022/03/09 08:11:39;;;;;;;68.80;34.20;;;;;;;-144.47;100.00;61586.06;5007443;28;20030;-72
2022/03/09 08:14:05;;;;;;;74.22;35.00;;;;;;;-144.47;100.00;61586.06;4989203;28;20324;-70
2022/03/09 08:16:30;;;;;;;76.32;35.40;;;;;;;-144.47;100.00;61586.06;5006312;28;20061;-72
2022/03/09 08:18:56;;;;;;;69.50;36.70;;;;;;;-144.47;100.00;61586.06;5007314;28;20021;-74
2022/03/09 08:21:22;;;;;;;68.68;35.85;;;;;;;-144.47;100.00;61586.06;5006528;28;20129;-72
2022/03/09 08:23:48;;;;;;;67.05;35.17;;;;;;;-144.47;100.00;61586.06;5006952;28;20498;-71
2022/03/09 08:26:13;;;;;;;66.78;36.72;;;;;;;-144.47;100.00;61586.06;5006811;28;20053;-73
2022/03/09 08:28:39;;;;;;;67.88;37.30;;;;;;;-144.47;100.00;61586.06;5007753;28;20044;-74
2022/03/09 08:31:04;;;;;;;62.88;37.10;;;;;;;-144.47;100.00;61586.06;5008756;28;20038;-75
2022/03/09 08:33:30;;;;;;;66.53;37.38;;;;;;;-144.47;100.00;61586.06;5007769;28;20508;-74
2022/03/09 08:35:55;;;;;;;67.30;36.83;;;;;;;-144.47;100.00;61586.06;5008813;28;20038;-73
2022/03/09 08:38:23;;;;;;;69.68;36.40;;;;;;;-144.47;100.00;61586.06;5006718;28;20026;-75
2022/03/09 08:40:49;;;;;;;64.63;36.88;;;;;;;-144.47;100.00;61586.06;5005928;28;20144;-75
2022/03/09 08:43:14;;;;;;;78.18;40.40;;;;;;;-144.47;100.00;61586.06;5006363;28;20431;-74
2022/03/09 08:45:40;;;;;;;69.55;39.30;;;;;;;-144.47;100.00;61586.06;5006543;28;20022;-72
2022/03/09 08:48:05;;;;;;;68.72;40.22;;;;;;;-144.47;100.00;61586.06;5006062;28;20034;-74
2022/03/09 08:50:31;;;;;;;72.20;41.13;;;;;;;-144.47;100.00;61586.06;4989091;28;20120;-74
2022/03/09 08:52:57;;;;;;;72.18;40.08;;;;;;;-144.47;100.00;61586.06;5005389;28;20458;-75
2022/03/09 08:55:23;;;;;;;71.90;39.22;;;;;;;-144.47;100.00;61586.06;5004853;28;20038;-74
2022/03/09 08:57:48;;;;;;;67.75;38.08;;;;;;;-144.47;100.00;61586.06;5009945;28;20056;-72
2022/03/09 09:00:14;;;;;;;74.70;39.28;;;;;;;-144.47;100.00;61586.06;5009482;28;20034;-73
2022/03/09 09:02:40;;;;;;;69.78;40.55;;;;;;;-144.47;100.00;61586.06;5010470;28;20042;-75
2022/03/09 09:05:06;;;;;;;71.57;39.47;;;;;;;-144.47;100.00;61586.06;5010460;28;20080;-74
2022/03/09 09:07:31;;;;;;;72.80;39.25;;;;;;;-144.47;100.00;61586.06;5010547;28;20397;-75
2022/03/09 09:09:57;;;;;;;68.00;38.75;;;;;;;-144.47;100.00;61586.06;5010326;28;20457;-74
2022/03/09 09:12:22;;;;;;;75.80;40.95;;;;;;;-144.47;100.00;61586.06;5009545;28;20038;-75
2022/03/09 09:14:48;;;;;;;70.95;39.55;;;;;;;-144.47;100.00;61586.06;5009948;28;20040;-75
2022/03/09 09:17:14;;;;;;;68.60;40.67;;;;;;;-144.47;100.00;61586.06;5009633;28;20034;-74
2022/03/09 09:19:40;;;;;;;73.20;41.80;;;;;;;-144.47;100.00;61586.06;5010017;28;20164;-73
2022/03/09 09:22:05;;;;;;;71.18;42.25;;;;;;;-144.47;100.00;61586.06;5009579;28;20030;-72
2022/03/09 09:24:31;;;;;;;75.47;41.45;;;;;;;-144.47;100.00;61586.06;5009731;28;20557;-74
2022/03/09 09:26:56;;;;;;;71.18;41.90;;;;;;;-144.47;100.00;61586.06;5009730;28;20415;-73
2022/03/09 09:29:22;;;;;;;71.22;40.80;;;;;;;-144.47;100.00;61586.06;5007739;28;20053;-73
2022/03/09 09:31:48;;;;;;;76.82;43.38;;;;;;;-144.47;100.00;61586.06;5009905;28;20034;-74
2022/03/09 09:34:15;;;;;;;74.15;43.90;;;;;;;-144.47;100.00;61586.06;5009102;28;20036;-75
2022/03/09 09:36:43;;;;;;;70.15;43.08;;;;;;;-144.47;100.00;61586.06;5009743;28;20084;-73
2022/03/09 09:39:09;;;;;;;75.75;44.08;;;;;;;-144.47;100.00;61586.06;5009432;28;20049;-74
2022/03/09 09:41:36;;;;;;;73.72;43.47;;;;;;;-144.47;100.00;61586.06;5009466;28;20030;-74
2022/03/09 09:44:03;;;;;;;76.43;44.72;;;;;;;-144.47;100.00;61586.06;5008900;28;20040;-73
2022/03/09 09:46:28;;;;;;;77.40;43.65;;;;;;;-144.47;100.00;61586.06;5009195;28;20037;-74
2022/03/09 09:48:54;;;;;;;71.57;42.47;;;;;;;-144.47;100.00;61586.06;5009431;28;20045;-76
2022/03/09 09:51:23;;;;;;;73.72;42.50;;;;;;;-144.47;100.00;61586.06;5009297;28;20068;-74
2022/03/09 09:53:48;;;;;;;75.22;43.72;;;;;;;-144.47;100.00;61586.06;5009236;28;20041;-76
2022/03/09 09:56:13;;;;;;;75.03;45.00;;;;;;;-144.47;100.00;61586.06;5008580;28;20033;-75
2022/03/09 09:58:44;;;;;;;77.43;44.20;;;;;;;-144.47;100.00;61586.06;5010269;28;20061;-74
2022/03/09 10:01:11;;;;;;;73.60;43.53;;;;;;;-144.47;100.00;61586.06;5008603;28;20077;-74
2022/03/09 10:03:36;;;;;;;73.93;42.42;;;;;;;-144.47;100.00;61586.06;5008881;28;20041;-75
2022/03/09 10:06:03;;;;;;;73.88;45.00;;;;;;;-144.47;100.00;61586.06;5008948;28;20042;-74
2022/03/09 10:08:28;;;;;;;73.47;43.70;;;;;;;-144.47;100.00;61586.06;5007129;28;20072;-74
2022/03/09 10:11:02;;;;;;;73.38;43.42;;;;;;;-144.47;100.00;61586.06;4991496;28;20156;-74
2022/03/09 10:13:33;;;;;;;72.50;43.35;;;;;;;-144.47;100.00;61586.06;5007023;28;20088;-74
2022/03/09 10:16:12;;;;;;;;;;;;;;;-144.47;100.00;61586.06;5009679;28;20126;-74
2022/03/09 10:18:39;;;;;;;70.03;41.22;;;;;;;-144.47;100.00;61586.06;5008973;28;19920;-74
2022/03/09 10:21:10;;;;;;;79.32;44.28;;;;;;;-144.47;100.00;61586.06;5007992;28;20432;-75
2022/03/09 10:23:56;;;;;;;70.20;41.72;;;;;;;-144.47;100.00;61586.06;5007256;28;20030;-74
2022/03/09 10:26:42;;;;;;;73.05;41.92;;;;;;;-144.47;100.00;61586.06;5007593;28;20055;-75
2022/03/09 10:29:10;;;;;;;72.15;42.83;;;;;;;-144.47;100.00;61586.06;4976590;28;20054;-73
2022/03/09 10:31:41;;;;;;;72.00;40.72;;;;;;;-144.47;100.00;61586.06;5007751;28;20402;-73
2022/03/09 10:34:10;;;;;;;68.60;39.78;;;;;;;-144.47;100.00;61586.06;5009313;28;20096;-74
2022/03/09 10:36:36;;;;;;;62.53;38.15;;;;;;;-144.47;100.00;61586.06;4989882;28;20034;-73
2022/03/09 10:39:16;;;;;;;62.13;35.17;;;;;;;-144.47;100.00;61586.06;5007921;28;20406;-74
2022/03/09 10:41:42;;;;;;;59.40;35.87;;;;;;;-144.47;100.00;61586.06;5007062;28;20026;-74
2022/03/09 10:44:07;;;;;;;60.95;35.90;;;;;;;-144.47;100.00;61586.06;5006506;28;20107;-74
2022/03/09 10:46:45;;;;;;;60.53;36.85;;;;;;;-144.47;100.00;61586.06;4979921;28;20046;-73
2022/03/09 10:49:13;;;;;;;56.70;33.95;;;;;;;-144.47;100.00;61586.06;5008095;28;20092;-73
2022/03/09 10:51:46;;;;;;;55.90;34.25;;;;;;;-144.47;100.00;61586.06;4991015;28;20390;-73
2022/03/09 10:54:26;;;;;;;60.53;35.45;;;;;;;-144.47;100.00;61586.06;5007872;28;20033;-73